Time;durP1;ratioP1;P1;durP2;ratioP2;P2;SDS_P1;SDS_P2;PMS_P1;PMS_P2;Temp;Humidity;BMP_temperature;BMP_pressure;BME280_temperature;BME280_humidity;BME280_pressure;Samples;Min_cycle;Max_cycle;Signal;HPM_P1;HPM_P2
2023/08/15 00:00:42;;;;;;;2.00;1.00;;;;;;;19.47;100.00;100224.02;104750;1257;72330;-51
2023/08/15 00:03:10;;;;;;;1.40;1.30;;;;;;;19.45;100.00;100225.58;104497;1254;62444;-54
2023/08/15 00:05:37;;;;;;;1.30;1.10;;;;;;;19.42;100.00;100223.79;106974;1254;60595;-53
2023/08/15 00:08:05;;;;;;;3.00;1.40;;;;;;;19.41;100.00;100224.08;104533;1258;73829;-53
2023/08/15 00:10:32;;;;;;;2.40;1.10;;;;;;;19.35;100.00;100224.58;104626;1254;65654;-52
2023/08/15 00:12:59;;;;;;;1.40;1.10;;;;;;;19.26;100.00;100226.17;104511;1254;73283;-53
2023/08/15 00:15:27;;;;;;;3.20;1.10;;;;;;;19.20;100.00;100226.59;104386;1254;60600;-54
2023/08/15 00:17:54;;;;;;;1.30;0.90;;;;;;;19.20;100.00;100224.67;104492;1254;60452;-52
2023/08/15 00:20:21;;;;;;;2.20;1.20;;;;;;;19.19;100.00;100226.84;104492;1256;72592;-53
2023/08/15 00:22:49;;;;;;;2.20;1.10;;;;;;;19.21;100.00;100229.13;104584;1254;65976;-53
2023/08/15 00:25:16;;;;;;;1.20;1.10;;;;;;;19.20;100.00;100230.97;104459;1255;71465;-53
2023/08/15 00:27:44;;;;;;;1.30;1.10;;;;;;;19.15;100.00;100231.52;105698;1255;60451;-54
2023/08/15 00:30:11;;;;;;;3.40;2.00;;;;;;;19.09;100.00;100234.41;104594;1253;60477;-51
2023/08/15 00:32:39;;;;;;;1.20;1.10;;;;;;;19.01;100.00;100238.83;104580;1254;72568;-53
2023/08/15 00:35:06;;;;;;;2.70;1.60;;;;;;;18.93;100.00;100239.09;104536;1254;66434;-49
2023/08/15 00:37:34;;;;;;;5.60;1.40;;;;;;;18.89;100.00;100238.98;104631;1254;71270;-51
2023/08/15 00:40:01;;;;;;;2.20;1.20;;;;;;;18.87;100.00;100239.71;104837;1258;61744;-53
2023/08/15 00:42:29;;;;;;;2.90;1.40;;;;;;;18.87;100.00;100240.45;104659;1259;60455;-53
2023/08/15 00:44:57;;;;;;;4.80;1.00;;;;;;;18.86;100.00;100242.46;104534;1254;74265;-54
2023/08/15 00:47:24;;;;;;;1.60;0.90;;;;;;;18.87;100.00;100242.20;104466;1259;66691;-52
2023/08/15 00:49:52;;;;;;;2.30;0.90;;;;;;;18.86;100.00;100245.02;104352;1255;73335;-52
2023/08/15 00:52:19;;;;;;;1.40;1.10;;;;;;;18.83;100.00;100241.44;104438;1254;61704;-52
2023/08/15 00:54:47;;;;;;;4.20;1.10;;;;;;;18.79;100.00;100241.16;104487;1258;60520;-53
2023/08/15 00:57:14;;;;;;;3.50;1.00;;;;;;;18.78;100.00;100238.77;105249;1254;72541;-54
2023/08/15 00:59:43;;;;;;;2.40;1.10;;;;;;;18.78;100.00;100241.81;104473;1254;65906;-53
2023/08/15 01:02:11;;;;;;;1.80;0.90;;;;;;;18.80;100.00;100240.78;104775;1254;71713;-51
2023/08/15 01:04:38;;;;;;;4.10;1.10;;;;;;;18.80;100.00;100237.63;104934;1256;61788;-54
2023/08/15 01:07:06;;;;;;;1.70;1.30;;;;;;;18.81;100.00;100239.73;104824;1258;60407;-53
2023/08/15 01:09:33;;;;;;;2.20;1.40;;;;;;;18.83;100.00;100239.45;105004;1258;72489;-54
2023/08/15 01:12:16;;;;;;;2.50;1.20;;;;;;;18.83;100.00;100237.05;104724;1254;66753;-52
2023/08/15 01:14:50;;;;;;;4.80;1.00;;;;;;;18.81;100.00;100236.30;104975;1255;71508;-53
2023/08/15 01:17:22;;;;;;;2.10;1.00;;;;;;;18.79;100.00;100236.46;105193;1256;65105;-53
2023/08/15 01:19:50;;;;;;;2.60;1.10;;;;;;;18.77;100.00;100234.23;104918;1260;60569;-54
2023/08/15 01:22:22;;;;;;;2.00;1.10;;;;;;;18.76;100.00;100229.09;104873;1261;72887;-54
2023/08/15 01:24:49;;;;;;;1.40;1.00;;;;;;;18.73;100.00;100232.88;104799;1254;66715;-52
2023/08/15 01:27:18;;;;;;;1.90;1.20;;;;;;;18.73;100.00;100229.83;104407;1259;72572;-52
2023/08/15 01:29:46;;;;;;;3.00;1.10;;;;;;;18.72;100.00;100229.35;104772;1255;61273;-49
2023/08/15 01:32:20;;;;;;;1.60;1.00;;;;;;;18.71;100.00;100228.17;104707;1255;60447;-49
2023/08/15 01:34:57;;;;;;;3.30;1.50;;;;;;;18.69;100.00;100227.61;104625;1254;74240;-52
2023/08/15 01:37:28;;;;;;;4.00;1.00;;;;;;;18.67;100.00;100226.63;105331;1255;69045;-51
2023/08/15 01:39:57;;;;;;;1.20;1.10;;;;;;;18.68;100.00;100227.34;104270;1260;71226;-52
2023/08/15 01:42:24;;;;;;;1.80;1.20;;;;;;;18.69;100.00;100230.54;108729;1260;61676;-50
2023/08/15 01:44:53;;;;;;;1.30;0.90;;;;;;;18.70;100.00;100225.20;105549;1260;60488;-47
2023/08/15 01:47:20;;;;;;;1.40;0.90;;;;;;;18.70;100.00;100223.88;105446;1258;73882;-51
2023/08/15 01:49:48;;;;;;;2.30;1.20;;;;;;;18.71;100.00;100224.91;105229;1256;67883;-50
2023/08/15 01:52:15;;;;;;;1.30;1.20;;;;;;;18.72;100.00;100225.19;104627;1254;71995;-48
2023/08/15 01:54:43;;;;;;;2.60;1.40;;;;;;;18.72;100.00;100221.91;108583;1254;59020;-52
2023/08/15 01:57:10;;;;;;;1.80;1.60;;;;;;;18.72;100.00;100222.98;105227;1256;60611;-50
2023/08/15 01:59:38;;;;;;;3.70;1.80;;;;;;;18.71;100.00;100219.42;104783;1258;73798;-51
2023/08/15 02:02:06;;;;;;;1.60;1.50;;;;;;;18.70;100.00;100224.23;104511;1256;65553;-50
2023/08/15 02:04:34;;;;;;;2.00;1.20;;;;;;;18.69;100.00;100217.80;105325;1256;72591;-53
2023/08/15 02:07:01;;;;;;;2.20;1.50;;;;;;;18.67;100.00;100217.91;104385;1260;61769;-48
2023/08/15 02:09:28;;;;;;;1.60;1.00;;;;;;;18.65;100.00;100219.13;104621;1259;60547;-49
2023/08/15 02:11:56;;;;;;;2.30;1.00;;;;;;;18.65;100.00;100218.99;104445;1256;73342;-48
2023/08/15 02:14:23;;;;;;;1.90;1.10;;;;;;;18.63;100.00;100220.98;108659;1256;65667;-50
2023/08/15 02:16:51;;;;;;;3.50;1.20;;;;;;;18.61;100.00;100219.35;108497;1254;71487;-50
2023/08/15 02:19:18;;;;;;;1.60;1.30;;;;;;;18.57;100.00;100221.02;104404;1257;60569;-51
2023/08/15 02:21:45;;;;;;;2.20;0.90;;;;;;;18.54;100.00;100217.52;104321;1255;61147;-51
2023/08/15 02:24:13;;;;;;;1.90;1.30;;;;;;;18.54;100.00;100220.27;108760;1254;73841;-50
2023/08/15 02:26:40;;;;;;;3.80;1.20;;;;;;;18.55;100.00;100216.61;108762;1255;67030;-52
2023/08/15 02:29:08;;;;;;;1.60;1.00;;;;;;;18.56;100.00;100215.64;108982;1255;72668;-49
2023/08/15 02:31:37;;;;;;;1.30;1.10;;;;;;;18.57;100.00;100215.59;108961;1258;61660;-49
2023/08/15 02:34:04;;;;;;;1.60;1.30;;;;;;;18.58;100.00;100216.24;108830;1254;60669;-50
2023/08/15 02:36:31;;;;;;;1.70;1.10;;;;;;;18.59;100.00;100219.48;108885;1253;73799;-50
2023/08/15 02:38:59;;;;;;;1.70;1.10;;;;;;;18.58;100.00;100217.88;109033;1256;66799;-50
2023/08/15 02:41:26;;;;;;;1.60;1.30;;;;;;;18.56;100.00;100221.10;108981;1254;71365;-49
2023/08/15 02:43:53;;;;;;;1.70;1.60;;;;;;;18.51;100.00;100218.70;109021;1256;58470;-49
2023/08/15 02:46:22;;;;;;;1.90;1.80;;;;;;;18.47;100.00;100224.84;109089;1255;60017;-49
2023/08/15 02:48:51;;;;;;;1.30;1.00;;;;;;;18.45;100.00;100225.92;108974;1254;72680;-51
2023/08/15 02:51:18;;;;;;;1.60;1.50;;;;;;;18.44;100.00;100229.06;108991;1254;66913;-50
2023/08/15 02:53:45;;;;;;;1.10;1.00;;;;;;;18.43;100.00;100232.02;108813;1255;72912;-50
2023/08/15 02:56:12;;;;;;;1.10;0.80;;;;;;;18.38;100.00;100236.56;108672;1254;61721;-51
2023/08/15 02:58:40;;;;;;;2.20;1.20;;;;;;;18.33;100.00;100233.14;108776;1254;59985;-51
2023/08/15 03:01:07;;;;;;;1.50;1.30;;;;;;;18.30;100.00;100234.77;108932;1254;72689;-53
2023/08/15 03:03:35;;;;;;;2.90;1.20;;;;;;;18.30;100.00;100235.33;108099;1254;65548;-49
2023/08/15 03:06:02;;;;;;;2.40;1.10;;;;;;;18.32;100.00;100239.78;104546;1254;73026;-52
2023/08/15 03:08:30;;;;;;;2.00;1.10;;;;;;;18.33;100.00;100241.67;105829;1256;62186;-52
2023/08/15 03:11:00;;;;;;;2.00;1.00;;;;;;;18.28;100.00;100246.92;104604;1254;60028;-48
2023/08/15 03:13:28;;;;;;;2.10;1.00;;;;;;;18.21;100.00;100250.54;104606;1254;73171;-51
2023/08/15 03:15:56;;;;;;;1.20;1.10;;;;;;;18.13;100.00;100251.48;104412;1256;66514;-51
2023/08/15 03:18:25;;;;;;;3.20;0.90;;;;;;;18.07;100.00;100252.62;104968;1257;73203;-51
2023/08/15 03:20:57;;;;;;;1.20;1.00;;;;;;;18.05;100.00;100252.94;105106;1255;60451;-51
2023/08/15 03:23:24;;;;;;;1.50;1.00;;;;;;;18.05;100.00;100254.20;104984;1258;60551;-52
2023/08/15 03:25:58;;;;;;;2.70;0.90;;;;;;;18.07;100.00;100254.27;104400;1256;74978;-50
2023/08/15 03:28:29;;;;;;;3.40;1.10;;;;;;;18.09;100.00;100257.02;105109;1255;65983;-49
2023/08/15 03:30:56;;;;;;;1.70;1.00;;;;;;;18.12;100.00;100259.36;104679;1256;70924;-52
2023/08/15 03:33:25;;;;;;;4.50;1.00;;;;;;;18.12;100.00;100262.92;105360;1256;64339;-52
2023/08/15 03:35:52;;;;;;;2.50;0.90;;;;;;;18.13;100.00;100264.88;105161;1260;60676;-50
2023/08/15 03:38:21;;;;;;;1.50;0.80;;;;;;;18.14;100.00;100264.09;104942;1254;74215;-51
2023/08/15 03:40:49;;;;;;;3.40;1.10;;;;;;;18.14;100.00;100268.06;104432;1254;66515;-50
2023/08/15 03:43:17;;;;;;;1.00;0.90;;;;;;;18.17;100.00;100270.30;104617;1255;71406;-49
2023/08/15 03:45:44;;;;;;;3.20;1.50;;;;;;;18.15;100.00;100275.13;104851;1260;60570;-52
2023/08/15 03:48:12;;;;;;;1.30;1.10;;;;;;;18.17;100.00;100272.64;104828;1270;60461;-48
2023/08/15 03:50:39;;;;;;;1.10;0.90;;;;;;;18.20;100.00;100272.48;104872;1256;73892;-49
2023/08/15 03:53:06;;;;;;;2.50;1.30;;;;;;;18.22;100.00;100273.56;104928;1256;67963;-47
2023/08/15 03:55:37;;;;;;;2.10;1.00;;;;;;;18.25;100.00;100274.42;105041;1259;72671;-49
2023/08/15 03:58:04;;;;;;;1.50;1.00;;;;;;;18.30;100.00;100274.96;104827;1256;62235;-49
2023/08/15 04:00:31;;;;;;;1.70;1.20;;;;;;;18.35;100.00;100281.46;104969;1254;60492;-50
2023/08/15 04:02:59;;;;;;;1.70;1.50;;;;;;;18.40;100.00;100281.32;104942;1254;73878;-49
2023/08/15 04:05:26;;;;;;;1.60;1.10;;;;;;;18.42;100.00;100285.13;104803;1257;65809;-48
2023/08/15 04:07:53;;;;;;;1.70;1.10;;;;;;;18.46;100.00;100279.57;104766;1254;70776;-52
2023/08/15 04:10:21;;;;;;;1.50;1.00;;;;;;;18.51;100.00;100279.05;104862;1257;61249;-49
2023/08/15 04:12:48;;;;;;;3.90;1.30;;;;;;;18.58;100.00;100281.88;104804;1260;60530;-47
2023/08/15 04:15:17;;;;;;;1.50;1.20;;;;;;;18.67;100.00;100282.05;105405;1256;74520;-51
2023/08/15 04:17:45;;;;;;;3.60;1.40;;;;;;;18.78;100.00;100278.02;104871;1258;68632;-49
2023/08/15 04:20:12;;;;;;;2.60;2.00;;;;;;;18.91;100.00;100276.33;104846;1256;71525;-50
2023/08/15 04:22:40;;;;;;;1.50;1.20;;;;;;;19.06;100.00;100275.58;104894;1260;61266;-50
2023/08/15 04:25:09;;;;;;;2.50;1.60;;;;;;;19.20;100.00;100276.45;104809;1254;60656;-48
2023/08/15 04:27:37;;;;;;;2.10;0.90;;;;;;;19.36;100.00;100271.66;105068;1254;72636;-50
2023/08/15 04:30:05;;;;;;;2.80;1.50;;;;;;;19.53;100.00;100278.14;104678;1260;65558;-50
2023/08/15 04:32:32;;;;;;;2.60;1.40;;;;;;;19.78;100.00;100276.58;104894;1258;72568;-49
2023/08/15 04:35:00;;;;;;;4.30;2.10;;;;;;;20.14;100.00;100278.47;104698;1255;61653;-47
2023/08/15 04:37:27;;;;;;;5.40;2.20;;;;;;;20.58;100.00;100285.89;104728;1254;60514;-48
2023/08/15 04:39:54;;;;;;;9.40;2.90;;;;;;;20.92;100.00;100286.48;104892;1256;74861;-51
2023/08/15 04:42:22;;;;;;;3.20;2.50;;;;;;;21.18;100.00;100284.15;104770;1260;68785;-49
2023/08/15 04:44:49;;;;;;;3.70;3.20;;;;;;;21.46;100.00;100286.35;104938;1254;72468;-49
2023/08/15 04:47:19;;;;;;;9.40;4.20;;;;;;;21.67;100.00;100292.64;104868;1259;60527;-50
2023/08/15 04:49:48;;;;;;;10.00;4.50;;;;;;;21.77;100.00;100297.77;107218;1256;60558;-49
2023/08/15 04:52:16;;;;;;;11.10;3.40;;;;;;;21.81;100.00;100299.89;104773;1255;72691;-48
2023/08/15 04:54:44;;;;;;;4.30;3.20;;;;;;;21.86;100.00;100303.19;104982;1254;69314;-48
2023/08/15 04:57:12;;;;;;;5.30;2.50;;;;;;;21.88;100.00;100300.82;104751;1256;71484;-48
2023/08/15 04:59:41;;;;;;;2.80;2.50;;;;;;;21.91;100.00;100306.95;104842;1261;61634;-49
2023/08/15 05:02:08;;;;;;;3.90;1.60;;;;;;;21.96;100.00;100310.73;104981;1258;60662;-49
2023/08/15 05:04:36;;;;;;;6.30;1.60;;;;;;;22.01;100.00;100311.27;104828;1255;73354;-50
2023/08/15 05:07:03;;;;;;;3.30;1.70;;;;;;;22.06;100.00;100315.91;104595;1255;66903;-48
2023/08/15 05:09:31;;;;;;;2.00;1.50;;;;;;;22.12;100.00;100316.48;104927;1259;71786;-48
2023/08/15 05:11:58;;;;;;;6.80;1.90;;;;;;;22.18;100.00;100319.38;104955;1256;60445;-50
2023/08/15 05:14:26;;;;;;;4.60;1.90;;;;;;;22.26;100.00;100319.80;104831;1256;61009;-49
2023/08/15 05:16:53;;;;;;;5.80;1.90;;;;;;;22.35;100.00;100321.96;109080;1254;72568;-53
2023/08/15 05:19:21;;;;;;;4.90;1.60;;;;;;;22.43;100.00;100321.23;109000;1254;67526;-51
2023/08/15 05:21:48;;;;;;;2.10;2.00;;;;;;;22.52;100.00;100324.23;108998;1254;72667;-53
2023/08/15 05:24:19;;;;;;;3.40;1.10;;;;;;;22.61;100.00;100325.84;108891;1254;58786;-50
2023/08/15 05:26:46;;;;;;;2.70;1.80;;;;;;;22.69;100.00;100327.70;108865;1256;59177;-49
2023/08/15 05:29:13;;;;;;;2.80;1.20;;;;;;;22.77;100.00;100329.88;108911;1254;73812;-51
2023/08/15 05:31:41;;;;;;;5.90;1.40;;;;;;;22.87;100.00;100334.69;108838;1256;64989;-52
2023/08/15 05:34:08;;;;;;;2.90;1.20;;;;;;;22.94;100.00;100334.16;107906;1256;72415;-48
2023/08/15 05:36:37;;;;;;;2.70;1.00;;;;;;;23.02;100.00;100333.64;104677;1256;60525;-51
2023/08/15 05:39:05;;;;;;;4.80;1.20;;;;;;;23.11;100.00;100332.70;104853;1260;60456;-49
2023/08/15 05:41:33;;;;;;;3.00;1.30;;;;;;;23.21;100.00;100333.56;104975;1256;72666;-48
2023/08/15 05:44:00;;;;;;;4.50;1.70;;;;;;;23.30;100.00;100337.31;104791;1256;66701;-50
2023/08/15 05:46:28;;;;;;;5.00;1.30;;;;;;;23.40;100.00;100333.43;104902;1258;72705;-48
2023/08/15 05:48:55;;;;;;;4.20;1.30;;;;;;;23.49;100.00;100339.09;104883;1260;61055;-50
2023/08/15 05:51:22;;;;;;;4.40;1.40;;;;;;;23.56;100.00;100342.75;104821;1256;60947;-50
2023/08/15 05:53:50;;;;;;;2.30;1.30;;;;;;;23.63;100.00;100346.86;104491;1256;72565;-51
2023/08/15 05:56:17;;;;;;;2.50;1.20;;;;;;;23.70;100.00;100348.77;104821;1256;68967;-48
2023/08/15 05:58:44;;;;;;;2.40;1.30;;;;;;;23.76;100.00;100350.08;104826;1254;73611;-51
2023/08/15 06:01:12;;;;;;;2.00;1.10;;;;;;;23.82;100.00;100346.21;104651;1257;62032;-49
2023/08/15 06:03:39;;;;;;;1.50;0.90;;;;;;;23.89;100.00;100356.75;104925;1256;60582;-53
2023/08/15 06:06:18;;;;;;;1.80;1.00;;;;;;;23.96;100.00;100362.64;104784;1258;73832;-50
2023/08/15 06:08:46;;;;;;;2.00;1.00;;;;;;;24.03;100.00;100365.77;104765;1255;67188;-50
2023/08/15 06:11:15;;;;;;;3.10;1.00;;;;;;;24.11;100.00;100367.80;104627;1259;70771;-51
2023/08/15 06:13:42;;;;;;;3.00;1.00;;;;;;;24.18;100.00;100371.19;104784;1256;60531;-49
2023/08/15 06:16:10;;;;;;;6.90;1.10;;;;;;;24.25;100.00;100372.36;104912;1253;60513;-50
2023/08/15 06:18:40;;;;;;;5.20;1.10;;;;;;;24.33;100.00;100374.17;105094;1253;74720;-54
2023/08/15 06:21:07;;;;;;;3.30;1.10;;;;;;;24.40;100.00;100381.20;104451;1254;67140;-50
2023/08/15 06:23:39;;;;;;;1.50;1.10;;;;;;;24.47;100.00;100380.13;106131;1256;72850;-50
2023/08/15 06:26:07;;;;;;;2.00;0.80;;;;;;;24.56;100.00;100379.45;105053;1258;62748;-50
2023/08/15 06:28:35;;;;;;;1.20;0.90;;;;;;;24.64;100.00;100383.42;104995;1253;506467;-52
2023/08/15 06:32:47;;;;;;;2.20;0.90;;;;;;;24.81;100.00;100426.52;101851;1293;600337;-55
2023/08/15 06:35:15;;;;;;;2.90;0.70;;;;;;;24.89;100.00;100427.85;103933;1268;60093;-50
2023/08/15 06:37:42;;;;;;;1.90;1.00;;;;;;;24.97;100.00;100425.77;103904;1272;59411;-51
2023/08/15 06:40:11;;;;;;;2.20;0.80;;;;;;;25.05;100.00;100421.67;103800;1273;71020;-50
2023/08/15 06:42:38;;;;;;;2.70;0.70;;;;;;;25.13;100.00;100426.41;105092;1272;66930;-50
2023/08/15 06:45:08;;;;;;;1.30;0.70;;;;;;;25.21;100.00;100429.48;103875;1273;71348;-51
2023/08/15 06:47:36;;;;;;;1.00;0.80;;;;;;;25.30;100.00;100427.52;105066;1268;186296;-50
2023/08/15 06:50:05;;;;;;;2.90;0.70;;;;;;;25.36;100.00;100428.31;104430;1265;59327;-52
2023/08/15 06:52:32;;;;;;;3.70;1.10;;;;;;;25.44;100.00;100432.27;104475;1269;72761;-51
2023/08/15 06:55:03;;;;;;;1.60;0.80;;;;;;;25.51;100.00;100436.92;104021;1265;65812;-52
2023/08/15 06:57:31;;;;;;;3.20;0.80;;;;;;;25.57;100.00;100436.13;108398;1266;71373;-52
2023/08/15 06:59:59;;;;;;;1.90;1.10;;;;;;;25.63;100.00;100432.95;104622;1267;59759;-52
2023/08/15 07:02:27;;;;;;;3.90;0.80;;;;;;;25.70;100.00;100436.41;104089;1269;59791;-52
2023/08/15 07:04:55;;;;;;;7.10;0.90;;;;;;;25.76;100.00;100434.83;103967;1269;73056;-53
2023/08/15 07:07:22;;;;;;;3.90;0.90;;;;;;;25.81;100.00;100439.23;104561;1254;65807;-54
2023/08/15 07:09:49;;;;;;;4.50;0.90;;;;;;;25.86;100.00;100440.94;104772;1260;72942;-51
2023/08/15 07:12:18;;;;;;;3.20;1.10;;;;;;;25.92;100.00;100444.33;104531;1260;60204;-53
2023/08/15 07:14:46;;;;;;;1.00;0.70;;;;;;;26.00;100.00;100443.75;105301;1260;59544;-52
2023/08/15 07:17:14;;;;;;;2.20;0.90;;;;;;;26.06;100.00;100444.19;104751;1257;73501;-51
2023/08/15 07:19:41;;;;;;;4.10;0.80;;;;;;;26.13;100.00;100447.16;104977;1258;68958;-53
2023/08/15 07:22:08;;;;;;;1.00;0.90;;;;;;;26.20;100.00;100449.37;104524;1255;71458;-52
2023/08/15 07:24:35;;;;;;;3.50;0.70;;;;;;;26.28;100.00;100452.68;104778;1254;60066;-54
2023/08/15 07:27:03;;;;;;;2.40;0.80;;;;;;;26.38;100.00;100456.23;104709;1254;59598;-54
2023/08/15 07:29:30;;;;;;;2.60;0.80;;;;;;;26.47;100.00;100459.77;104712;1260;73443;-53
2023/08/15 07:31:58;;;;;;;0.90;0.50;;;;;;;26.53;100.00;100463.45;104500;1254;65493;-49
2023/08/15 07:34:25;;;;;;;0.70;0.70;;;;;;;26.62;100.00;100464.80;104989;1259;76181;-50
2023/08/15 07:36:53;;;;;;;4.10;0.80;;;;;;;26.69;100.00;100465.45;104830;1263;60099;-50
2023/08/15 07:39:20;;;;;;;2.30;0.70;;;;;;;26.77;100.00;100470.73;104914;1260;61649;-49
2023/08/15 07:41:47;;;;;;;3.20;0.60;;;;;;;26.83;100.00;100476.52;104928;1260;73094;-49
2023/08/15 07:44:15;;;;;;;1.10;0.80;;;;;;;26.90;100.00;100476.70;104904;1260;67099;-54
2023/08/15 07:46:42;;;;;;;0.50;0.50;;;;;;;26.96;100.00;100474.08;105027;1260;72687;-51
2023/08/15 07:49:10;;;;;;;3.20;0.70;;;;;;;27.04;100.00;100482.05;104987;1254;59768;-51
2023/08/15 07:51:37;;;;;;;0.50;0.50;;;;;;;27.12;100.00;100486.59;105377;1258;60513;-51
2023/08/15 07:54:05;;;;;;;0.60;0.60;;;;;;;27.21;100.00;100487.30;104853;1259;71250;-51
2023/08/15 07:56:33;;;;;;;0.60;0.60;;;;;;;27.28;100.00;100488.70;104656;1259;66778;-51
2023/08/15 07:59:03;;;;;;;0.70;0.60;;;;;;;27.35;100.00;100492.34;106189;1259;72741;-51
2023/08/15 08:01:30;;;;;;;1.90;0.60;;;;;;;27.43;100.00;100493.69;104900;1259;60081;-50
2023/08/15 08:03:57;;;;;;;1.00;0.60;;;;;;;27.51;100.00;100495.25;104785;1260;60032;-51
2023/08/15 08:06:25;;;;;;;0.80;0.50;;;;;;;27.59;100.00;100496.88;105127;1254;71747;-50
2023/08/15 08:09:08;;;;;;;1.00;0.60;;;;;;;27.66;100.00;100496.73;104865;1255;66011;-49
2023/08/15 08:11:36;;;;;;;1.00;0.60;;;;;;;27.74;100.00;100499.61;104868;1255;72902;-51
2023/08/15 08:14:03;;;;;;;1.50;0.60;;;;;;;27.81;100.00;100506.22;104899;1260;60223;-49
2023/08/15 08:16:31;;;;;;;0.50;0.50;;;;;;;27.86;100.00;100508.25;109024;1254;58749;-55
2023/08/15 08:18:58;;;;;;;0.90;0.60;;;;;;;27.92;100.00;100511.10;109025;1254;77018;-53
2023/08/15 08:21:26;;;;;;;0.80;0.60;;;;;;;27.96;100.00;100511.95;109023;1254;66116;-51
2023/08/15 08:23:53;;;;;;;1.10;0.60;;;;;;;28.01;100.00;100514.55;109160;1254;71504;-54
2023/08/15 08:26:20;;;;;;;1.30;0.70;;;;;;;28.05;100.00;100513.54;107394;1260;62408;-52
2023/08/15 08:28:48;;;;;;;2.20;0.50;;;;;;;28.10;100.00;100520.23;104941;1260;59652;-52
2023/08/15 08:31:15;;;;;;;4.70;1.00;;;;;;;28.14;100.00;100519.22;108910;1254;73656;-54
2023/08/15 08:33:42;;;;;;;0.60;0.50;;;;;;;28.19;100.00;100520.14;109081;1254;65499;-52
2023/08/15 08:36:10;;;;;;;2.60;0.50;;;;;;;28.25;100.00;100519.15;109051;1257;72335;-53
2023/08/15 08:38:37;;;;;;;4.30;0.80;;;;;;;28.30;100.00;100516.38;109021;1254;60052;-53
2023/08/15 08:41:05;;;;;;;2.00;0.60;;;;;;;28.36;100.00;100519.36;109165;1254;58896;-51
2023/08/15 08:43:33;;;;;;;0.70;0.50;;;;;;;28.41;100.00;100519.86;109164;1254;73053;-51
2023/08/15 08:46:01;;;;;;;0.70;0.60;;;;;;;28.48;100.00;100522.29;109036;1254;67475;-54
2023/08/15 08:48:28;;;;;;;1.60;0.50;;;;;;;28.54;100.00;100519.18;109054;1254;72565;-54
2023/08/15 08:50:55;;;;;;;0.60;0.50;;;;;;;28.60;100.00;100524.94;109147;1254;58848;-51
2023/08/15 08:53:23;;;;;;;0.70;0.60;;;;;;;28.67;100.00;100515.56;107375;1253;59759;-51
2023/08/15 08:55:51;;;;;;;1.00;0.60;;;;;;;28.71;100.00;100514.15;104926;1260;71780;-52
2023/08/15 08:58:18;;;;;;;0.60;0.60;;;;;;;28.74;100.00;100514.43;105033;1260;66994;-52
2023/08/15 09:00:45;;;;;;;4.30;0.60;;;;;;;28.76;100.00;100509.65;104801;1258;73075;-52
2023/08/15 09:03:13;;;;;;;2.10;0.60;;;;;;;28.81;100.00;100510.62;104971;1255;59722;-51
2023/08/15 09:05:41;;;;;;;0.60;0.60;;;;;;;28.87;100.00;100511.93;105110;1261;59657;-55
2023/08/15 09:08:08;;;;;;;0.60;0.50;;;;;;;28.94;100.00;100509.33;105016;1259;73510;-51
2023/08/15 09:10:36;;;;;;;1.10;0.50;;;;;;;29.02;100.00;100510.33;104994;1259;66733;-53
2023/08/15 09:13:03;;;;;;;3.50;0.60;;;;;;;29.08;100.00;100509.40;104700;1260;72660;-51
2023/08/15 09:15:31;;;;;;;3.30;0.50;;;;;;;29.13;100.00;100512.95;106106;1258;60119;-50
2023/08/15 09:18:04;;;;;;;0.90;0.60;;;;;;;29.14;100.00;100513.52;104926;1259;60280;-50
2023/08/15 09:20:33;;;;;;;4.00;0.60;;;;;;;29.14;100.00;100506.83;105211;1254;71868;-50
2023/08/15 09:23:00;;;;;;;3.60;0.60;;;;;;;29.15;100.00;100503.58;105004;1255;66886;-52
2023/08/15 09:25:27;;;;;;;1.60;0.60;;;;;;;29.20;100.00;100502.13;104873;1257;71140;-51
2023/08/15 09:27:55;;;;;;;4.40;0.70;;;;;;;29.26;100.00;100502.16;105152;1259;60090;-52
2023/08/15 09:30:22;;;;;;;1.00;0.70;;;;;;;29.33;100.00;100506.52;104977;1257;60044;-51
2023/08/15 09:32:50;;;;;;;2.80;0.60;;;;;;;29.39;100.00;100497.93;104878;1257;73068;-50
2023/08/15 09:35:18;;;;;;;3.40;0.60;;;;;;;29.40;100.00;100500.58;105035;1254;66882;-51
2023/08/15 09:37:47;;;;;;;0.90;0.60;;;;;;;29.40;100.00;100493.50;106046;1258;71638;-52
2023/08/15 09:40:16;;;;;;;5.10;0.70;;;;;;;29.39;100.00;100492.53;105357;1254;60005;-51
2023/08/15 09:42:45;;;;;;;4.80;0.90;;;;;;;29.37;100.00;100489.67;104918;1254;60334;-53
2023/08/15 09:45:13;;;;;;;3.00;0.80;;;;;;;29.32;100.00;100482.77;104843;1259;73001;-50
2023/08/15 09:47:41;;;;;;;2.80;0.80;;;;;;;29.25;100.00;100482.48;104731;1254;65812;-51
2023/08/15 09:50:09;;;;;;;1.20;0.60;;;;;;;29.23;100.00;100483.84;105447;1254;72797;-50
2023/08/15 09:52:41;;;;;;;3.10;0.60;;;;;;;29.23;100.00;100481.55;106517;1256;60104;-51
2023/08/15 09:55:12;;;;;;;1.10;0.60;;;;;;;29.26;100.00;100478.23;108623;1254;59318;-48
2023/08/15 09:57:41;;;;;;;1.60;0.90;;;;;;;29.29;100.00;100478.82;105003;1254;71907;-51
2023/08/15 10:00:12;;;;;;;1.70;0.70;;;;;;;29.31;100.00;100479.30;104993;1254;67173;-51
2023/08/15 10:02:46;;;;;;;4.60;0.70;;;;;;;29.34;100.00;100475.70;105066;1257;71497;-55
2023/08/15 10:05:17;;;;;;;1.40;0.60;;;;;;;29.35;100.00;100473.55;108934;1254;59370;-52
2023/08/15 10:07:44;;;;;;;3.50;0.60;;;;;;;29.34;100.00;100473.69;107393;1254;59829;-51
2023/08/15 10:10:13;;;;;;;4.50;0.70;;;;;;;29.30;100.00;100467.59;104789;1258;72097;-50
2023/08/15 10:12:41;;;;;;;3.00;0.70;;;;;;;29.29;100.00;100466.80;104837;1255;67066;-51
2023/08/15 10:15:09;;;;;;;1.90;1.00;;;;;;;29.27;100.00;100463.58;104764;1254;72625;-50
2023/08/15 10:17:36;;;;;;;3.10;0.60;;;;;;;29.23;100.00;100462.52;104882;1256;59981;-50
2023/08/15 10:20:10;;;;;;;0.70;0.60;;;;;;;29.19;100.00;100455.27;104900;1254;60584;-51
2023/08/15 10:22:39;;;;;;;1.00;0.70;;;;;;;29.15;100.00;100452.56;105143;1257;72291;-55
2023/08/15 10:25:31;;;;;;;0.90;0.70;;;;;;;29.14;100.00;100450.30;104674;1261;66755;-49
2023/08/15 10:27:58;;;;;;;3.40;0.60;;;;;;;29.13;100.00;100451.34;104860;1254;71079;-51
2023/08/15 10:30:30;;;;;;;1.00;0.70;;;;;;;29.10;100.00;100442.31;105146;1260;60116;-50
2023/08/15 10:33:12;;;;;;;10.00;1.00;;;;;;;29.04;100.00;100442.45;105013;1254;60519;-52
2023/08/15 10:35:54;;;;;;;6.10;0.90;;;;;;;29.01;100.00;100440.95;104905;1261;72987;-49
2023/08/15 10:38:28;;;;;;;6.80;0.80;;;;;;;29.02;100.00;100438.58;105082;1254;67629;-50
2023/08/15 10:41:06;;;;;;;0.70;0.60;;;;;;;29.06;100.00;100436.81;105037;1258;72739;-51
2023/08/15 10:43:35;;;;;;;2.40;0.60;;;;;;;29.13;100.00;100430.52;105834;1254;60451;-50
2023/08/15 10:46:04;;;;;;;1.70;0.80;;;;;;;29.19;100.00;100430.16;105005;1254;62374;-50
2023/08/15 10:48:49;;;;;;;3.20;0.60;;;;;;;29.25;100.00;100426.81;104895;1258;73849;-52
2023/08/15 10:51:21;;;;;;;6.30;1.10;;;;;;;29.29;100.00;100424.92;106021;1254;65673;-49
2023/08/15 10:53:52;;;;;;;2.40;0.60;;;;;;;29.29;100.00;100421.17;104775;1260;71861;-50
2023/08/15 10:56:24;;;;;;;1.10;0.60;;;;;;;29.28;100.00;100416.27;104792;1259;60543;-49
2023/08/15 10:58:51;;;;;;;1.90;0.60;;;;;;;29.27;100.00;100420.08;104922;1260;60428;-50
2023/08/15 11:01:20;;;;;;;1.00;0.60;;;;;;;29.29;100.00;100416.19;104882;1259;74402;-49
2023/08/15 11:03:48;;;;;;;0.80;0.70;;;;;;;29.34;100.00;100418.52;105636;1254;65690;-51
2023/08/15 11:06:16;;;;;;;1.20;0.70;;;;;;;29.42;100.00;100416.27;105326;1254;72986;-49
2023/08/15 11:08:44;;;;;;;1.30;0.70;;;;;;;29.47;100.00;100410.45;104868;1257;60565;-51
2023/08/15 11:11:11;;;;;;;3.70;0.60;;;;;;;29.53;100.00;100408.65;104837;1260;60370;-49
2023/08/15 11:13:40;;;;;;;1.50;0.70;;;;;;;29.58;100.00;100402.42;104901;1253;72680;-49
2023/08/15 11:16:08;;;;;;;3.30;0.60;;;;;;;29.63;100.00;100400.20;108923;1253;66884;-50